sensor_id;sensor_type;location;lat;lon;timestamp;pressure;altitude;pressure_sealevel;temperature;humidity
51999;BME280;38015;50.924;11.598;2023-01-10T00:00:03;98783.08;;;22.18;28.96
51999;BME280;38015;50.924;11.598;2023-01-10T00:02:32;98789.77;;;22.24;28.85
51999;BME280;38015;50.924;11.598;2023-01-10T00:05:03;98791.16;;;22.10;29.09
51999;BME280;38015;50.924;11.598;2023-01-10T00:07:33;98793.89;;;22.19;28.96
51999;BME280;38015;50.924;11.598;2023-01-10T00:10:04;98796.85;;;22.21;28.91
51999;BME280;38015;50.924;11.598;2023-01-10T00:12:35;98806.46;;;22.17;28.99
51999;BME280;38015;50.924;11.598;2023-01-10T00:15:05;98808.25;;;22.15;29.02
51999;BME280;38015;50.924;11.598;2023-01-10T00:17:35;98814.46;;;22.23;28.88
51999;BME280;38015;50.924;11.598;2023-01-10T00:20:06;98822.03;;;22.14;29.03
51999;BME280;38015;50.924;11.598;2023-01-10T00:22:36;98826.66;;;22.24;28.87
51999;BME280;38015;50.924;11.598;2023-01-10T00:25:07;98832.99;;;22.18;28.97
51999;BME280;38015;50.924;11.598;2023-01-10T00:27:37;98835.41;;;22.19;28.97
51999;BME280;38015;50.924;11.598;2023-01-10T00:30:09;98839.82;;;22.24;28.88
51999;BME280;38015;50.924;11.598;2023-01-10T00:32:39;98837.81;;;22.25;28.85
51999;BME280;38015;50.924;11.598;2023-01-10T00:35:09;98840.58;;;22.17;28.98
51999;BME280;38015;50.924;11.598;2023-01-10T00:37:39;98844.58;;;22.16;28.99
51999;BME280;38015;50.924;11.598;2023-01-10T00:40:11;98846.21;;;22.20;28.93
51999;BME280;38015;50.924;11.598;2023-01-10T00:42:40;98852.15;;;22.18;28.97
51999;BME280;38015;50.924;11.598;2023-01-10T00:45:10;98857.25;;;22.19;28.97
51999;BME280;38015;50.924;11.598;2023-01-10T00:47:40;98860.07;;;22.25;28.84
51999;BME280;38015;50.924;11.598;2023-01-10T00:50:11;98863.73;;;22.17;28.99
51999;BME280;38015;50.924;11.598;2023-01-10T00:52:41;98870.25;;;22.26;28.81
51999;BME280;38015;50.924;11.598;2023-01-10T00:55:12;98872.69;;;22.24;28.86
51999;BME280;38015;50.924;11.598;2023-01-10T00:57:43;98876.58;;;22.19;28.90
51999;BME280;38015;50.924;11.598;2023-01-10T01:00:13;98883.81;;;22.15;28.99
51999;BME280;38015;50.924;11.598;2023-01-10T01:02:43;98881.17;;;22.15;28.98
51999;BME280;38015;50.924;11.598;2023-01-10T01:05:14;98884.83;;;22.18;28.90
51999;BME280;38015;50.924;11.598;2023-01-10T01:07:47;98888.97;;;22.13;28.94
51999;BME280;38015;50.924;11.598;2023-01-10T01:10:15;98894.26;;;22.15;28.90
51999;BME280;38015;50.924;11.598;2023-01-10T01:12:46;98897.81;;;22.20;28.82
51999;BME280;38015;50.924;11.598;2023-01-10T01:15:16;98901.09;;;22.16;28.86
51999;BME280;38015;50.924;11.598;2023-01-10T01:17:46;98906.31;;;22.21;28.75
51999;BME280;38015;50.924;11.598;2023-01-10T01:20:17;98906.95;;;22.20;28.77
51999;BME280;38015;50.924;11.598;2023-01-10T01:22:47;98907.63;;;22.22;28.75
51999;BME280;38015;50.924;11.598;2023-01-10T01:25:18;98915.54;;;22.22;28.73
51999;BME280;38015;50.924;11.598;2023-01-10T01:27:48;98924.61;;;22.18;28.83
51999;BME280;38015;50.924;11.598;2023-01-10T01:30:18;98932.78;;;22.16;28.84
51999;BME280;38015;50.924;11.598;2023-01-10T01:32:49;98935.36;;;22.17;28.82
51999;BME280;38015;50.924;11.598;2023-01-10T01:35:19;98938.27;;;22.13;28.88
51999;BME280;38015;50.924;11.598;2023-01-10T01:37:50;98945.84;;;22.17;28.79
51999;BME280;38015;50.924;11.598;2023-01-10T01:40:22;98952.23;;;22.22;28.70
51999;BME280;38015;50.924;11.598;2023-01-10T01:42:51;98956.68;;;22.11;28.89
51999;BME280;38015;50.924;11.598;2023-01-10T01:45:31;98962.57;;;22.19;28.76
51999;BME280;38015;50.924;11.598;2023-01-10T01:47:55;98966.69;;;22.23;28.69
51999;BME280;38015;50.924;11.598;2023-01-10T01:50:25;98963.93;;;22.23;28.67
51999;BME280;38015;50.924;11.598;2023-01-10T01:52:56;98971.15;;;22.05;28.99
51999;BME280;38015;50.924;11.598;2023-01-10T01:55:24;98968.21;;;22.19;28.73
51999;BME280;38015;50.924;11.598;2023-01-10T01:57:54;98970.19;;;22.20;28.70
51999;BME280;38015;50.924;11.598;2023-01-10T02:00:24;98975.71;;;22.13;28.82
51999;BME280;38015;50.924;11.598;2023-01-10T02:02:56;98981.97;;;22.18;28.73
51999;BME280;38015;50.924;11.598;2023-01-10T02:05:25;98982.16;;;22.25;28.61
51999;BME280;38015;50.924;11.598;2023-01-10T02:07:57;98985.22;;;22.19;28.71
51999;BME280;38015;50.924;11.598;2023-01-10T02:10:31;98984.34;;;22.21;28.69
51999;BME280;38015;50.924;11.598;2023-01-10T02:13:02;98990.58;;;22.22;28.69
51999;BME280;38015;50.924;11.598;2023-01-10T02:15:28;98996.33;;;22.20;28.73
51999;BME280;38015;50.924;11.598;2023-01-10T02:17:58;99002.63;;;22.11;28.87
51999;BME280;38015;50.924;11.598;2023-01-10T02:20:30;99009.62;;;22.18;28.78
51999;BME280;38015;50.924;11.598;2023-01-10T02:23:08;99016.34;;;22.16;28.82
51999;BME280;38015;50.924;11.598;2023-01-10T02:25:47;99020.88;;;22.20;28.75
51999;BME280;38015;50.924;11.598;2023-01-10T02:28:14;99021.02;;;22.19;28.75
51999;BME280;38015;50.924;11.598;2023-01-10T02:30:45;99019.76;;;22.16;28.75
51999;BME280;38015;50.924;11.598;2023-01-10T02:33:07;99028.98;;;22.00;29.02
51999;BME280;38015;50.924;11.598;2023-01-10T02:38:08;99030.95;;;22.15;28.71
51999;BME280;38015;50.924;11.598;2023-01-10T02:40:41;99032.67;;;22.21;28.58
51999;BME280;38015;50.924;11.598;2023-01-10T02:43:06;99037.73;;;22.13;28.72
51999;BME280;38015;50.924;11.598;2023-01-10T02:45:35;99043.67;;;22.13;28.72
51999;BME280;38015;50.924;11.598;2023-01-10T02:48:03;99050.54;;;22.10;28.76
51999;BME280;38015;50.924;11.598;2023-01-10T02:50:43;99056.05;;;22.13;28.72
51999;BME280;38015;50.924;11.598;2023-01-10T02:53:07;99060.80;;;22.23;28.55
51999;BME280;38015;50.924;11.598;2023-01-10T02:55:43;99060.13;;;22.22;28.58
51999;BME280;38015;50.924;11.598;2023-01-10T02:58:11;99049.72;;;22.14;28.69
51999;BME280;38015;50.924;11.598;2023-01-10T03:00:41;99052.63;;;22.17;28.66
51999;BME280;38015;50.924;11.598;2023-01-10T03:03:13;99056.08;;;22.10;28.75
51999;BME280;38015;50.924;11.598;2023-01-10T03:05:48;99059.45;;;22.08;28.82
51999;BME280;38015;50.924;11.598;2023-01-10T03:08:13;99058.30;;;22.19;28.63
51999;BME280;38015;50.924;11.598;2023-01-10T03:10:42;99057.56;;;22.13;28.72
51999;BME280;38015;50.924;11.598;2023-01-10T03:13:09;99056.75;;;22.17;28.63
51999;BME280;38015;50.924;11.598;2023-01-10T03:15:39;99058.49;;;22.13;28.71
51999;BME280;38015;50.924;11.598;2023-01-10T03:18:12;99066.25;;;22.07;28.83
51999;BME280;38015;50.924;11.598;2023-01-10T03:20:42;99070.40;;;22.18;28.62
51999;BME280;38015;50.924;11.598;2023-01-10T03:23:10;99072.14;;;22.17;28.63
51999;BME280;38015;50.924;11.598;2023-01-10T03:25:40;99072.26;;;22.12;28.72
51999;BME280;38015;50.924;11.598;2023-01-10T03:28:15;99071.09;;;22.11;28.75
51999;BME280;38015;50.924;11.598;2023-01-10T03:30:45;99085.19;;;22.08;28.82
51999;BME280;38015;50.924;11.598;2023-01-10T03:33:13;99093.67;;;22.16;28.69
51999;BME280;38015;50.924;11.598;2023-01-10T03:35:50;99098.33;;;22.12;28.76
51999;BME280;38015;50.924;11.598;2023-01-10T03:38:19;99102.89;;;22.09;28.82
51999;BME280;38015;50.924;11.598;2023-01-10T03:40:50;99105.26;;;22.06;28.88
51999;BME280;38015;50.924;11.598;2023-01-10T03:43:17;99115.02;;;22.14;28.74
51999;BME280;38015;50.924;11.598;2023-01-10T03:45:48;99128.06;;;22.20;28.65
51999;BME280;38015;50.924;11.598;2023-01-10T03:48:15;99137.72;;;22.20;28.66
51999;BME280;38015;50.924;11.598;2023-01-10T03:50:45;99145.73;;;22.13;28.79
51999;BME280;38015;50.924;11.598;2023-01-10T03:53:15;99145.89;;;22.13;28.79
51999;BME280;38015;50.924;11.598;2023-01-10T03:55:45;99146.14;;;22.12;28.82
51999;BME280;38015;50.924;11.598;2023-01-10T03:58:16;99148.50;;;22.16;28.72
51999;BME280;38015;50.924;11.598;2023-01-10T04:00:46;99162.17;;;22.20;28.67
51999;BME280;38015;50.924;11.598;2023-01-10T04:03:17;99160.45;;;22.17;28.71
51999;BME280;38015;50.924;11.598;2023-01-10T04:05:47;99176.42;;;22.06;28.93
51999;BME280;38015;50.924;11.598;2023-01-10T04:08:18;99178.22;;;22.22;28.66
51999;BME280;38015;50.924;11.598;2023-01-10T04:10:48;99176.27;;;22.19;28.69
51999;BME280;38015;50.924;11.598;2023-01-10T04:13:18;99185.18;;;22.08;28.90
51999;BME280;38015;50.924;11.598;2023-01-10T04:15:49;99182.63;;;22.16;28.77
51999;BME280;38015;50.924;11.598;2023-01-10T04:18:19;99188.21;;;22.00;29.03
51999;BME280;38015;50.924;11.598;2023-01-10T04:20:50;99192.07;;;22.14;28.78
51999;BME280;38015;50.924;11.598;2023-01-10T04:23:20;99193.00;;;22.18;28.76
51999;BME280;38015;50.924;11.598;2023-01-10T04:25:51;99199.05;;;22.18;28.75
51999;BME280;38015;50.924;11.598;2023-01-10T04:28:21;99202.89;;;22.08;28.94
51999;BME280;38015;50.924;11.598;2023-01-10T04:30:52;99198.94;;;22.11;28.88
51999;BME280;38015;50.924;11.598;2023-01-10T04:33:22;99208.84;;;22.15;28.81
51999;BME280;38015;50.924;11.598;2023-01-10T04:35:53;99214.82;;;22.11;28.89
51999;BME280;38015;50.924;11.598;2023-01-10T04:38:24;99219.17;;;22.10;28.88
51999;BME280;38015;50.924;11.598;2023-01-10T04:40:55;99229.43;;;22.19;28.75
51999;BME280;38015;50.924;11.598;2023-01-10T04:43:24;99232.10;;;22.16;28.80
51999;BME280;38015;50.924;11.598;2023-01-10T04:45:55;99235.43;;;22.13;28.86
51999;BME280;38015;50.924;11.598;2023-01-10T04:48:25;99243.64;;;22.22;28.73
51999;BME280;38015;50.924;11.598;2023-01-10T04:50:55;99252.48;;;22.07;28.98
51999;BME280;38015;50.924;11.598;2023-01-10T04:53:26;99261.52;;;22.09;28.95
51999;BME280;38015;50.924;11.598;2023-01-10T04:56:01;99257.47;;;22.09;28.96
51999;BME280;38015;50.924;11.598;2023-01-10T04:58:27;99268.68;;;22.09;28.97
51999;BME280;38015;50.924;11.598;2023-01-10T05:00:57;99278.31;;;22.06;29.02
51999;BME280;38015;50.924;11.598;2023-01-10T05:03:28;99283.70;;;22.11;28.94
51999;BME280;38015;50.924;11.598;2023-01-10T05:05:58;99294.13;;;22.10;28.95
51999;BME280;38015;50.924;11.598;2023-01-10T05:08:29;99300.42;;;22.09;28.97
51999;BME280;38015;50.924;11.598;2023-01-10T05:10:59;99305.66;;;22.13;28.90
51999;BME280;38015;50.924;11.598;2023-01-10T05:13:30;99309.64;;;22.09;28.97
51999;BME280;38015;50.924;11.598;2023-01-10T05:16:00;99314.96;;;22.01;29.10
51999;BME280;38015;50.924;11.598;2023-01-10T05:18:31;99311.90;;;22.01;29.13
51999;BME280;38015;50.924;11.598;2023-01-10T05:21:02;99318.22;;;22.07;29.02
51999;BME280;38015;50.924;11.598;2023-01-10T05:23:32;99322.64;;;22.06;29.06
51999;BME280;38015;50.924;11.598;2023-01-10T05:26:04;99330.66;;;22.09;29.00
51999;BME280;38015;50.924;11.598;2023-01-10T05:28:33;99333.26;;;22.08;29.04
51999;BME280;38015;50.924;11.598;2023-01-10T05:31:05;99336.29;;;22.05;29.08
51999;BME280;38015;50.924;11.598;2023-01-10T05:33:34;99343.89;;;22.02;29.16
51999;BME280;38015;50.924;11.598;2023-01-10T05:36:05;99353.44;;;21.98;29.22
51999;BME280;38015;50.924;11.598;2023-01-10T05:38:35;99361.95;;;22.00;29.18
51999;BME280;38015;50.924;11.598;2023-01-10T05:41:05;99365.45;;;21.93;29.31
51999;BME280;38015;50.924;11.598;2023-01-10T05:43:36;99369.85;;;22.02;29.16
51999;BME280;38015;50.924;11.598;2023-01-10T05:46:06;99372.35;;;21.97;29.25
51999;BME280;38015;50.924;11.598;2023-01-10T05:48:36;99379.24;;;22.10;29.02
51999;BME280;38015;50.924;11.598;2023-01-10T05:51:07;99389.53;;;22.07;29.09
51999;BME280;38015;50.924;11.598;2023-01-10T05:53:37;99394.23;;;22.02;29.20
51999;BME280;38015;50.924;11.598;2023-01-10T05:56:08;99398.12;;;22.12;29.01
51999;BME280;38015;50.924;11.598;2023-01-10T05:58:38;99396.89;;;22.08;29.07
51999;BME280;38015;50.924;11.598;2023-01-10T06:01:09;99403.85;;;22.11;29.02
51999;BME280;38015;50.924;11.598;2023-01-10T06:03:39;99406.00;;;22.01;29.20
51999;BME280;38015;50.924;11.598;2023-01-10T06:06:09;99412.45;;;22.13;28.99
51999;BME280;38015;50.924;11.598;2023-01-10T06:08:40;99414.24;;;22.11;29.02
51999;BME280;38015;50.924;11.598;2023-01-10T06:11:11;99423.82;;;22.14;28.95
51999;BME280;38015;50.924;11.598;2023-01-10T06:13:41;99428.34;;;22.09;29.04
51999;BME280;38015;50.924;11.598;2023-01-10T06:16:11;99428.84;;;22.14;28.93
51999;BME280;38015;50.924;11.598;2023-01-10T06:18:42;99429.52;;;22.14;28.93
51999;BME280;38015;50.924;11.598;2023-01-10T06:21:12;99437.45;;;22.19;28.88
51999;BME280;38015;50.924;11.598;2023-01-10T06:23:43;99443.24;;;22.10;29.06
51999;BME280;38015;50.924;11.598;2023-01-10T06:26:13;99448.69;;;22.09;29.05
51999;BME280;38015;50.924;11.598;2023-01-10T06:28:44;99454.68;;;22.19;28.86
51999;BME280;38015;50.924;11.598;2023-01-10T06:31:14;99457.43;;;22.12;29.00
51999;BME280;38015;50.924;11.598;2023-01-10T06:33:44;99461.87;;;22.08;29.09
51999;BME280;38015;50.924;11.598;2023-01-10T06:36:15;99468.37;;;22.12;28.99
51999;BME280;38015;50.924;11.598;2023-01-10T06:38:46;99466.51;;;22.15;28.94
51999;BME280;38015;50.924;11.598;2023-01-10T06:41:16;99473.32;;;22.09;29.06
51999;BME280;38015;50.924;11.598;2023-01-10T06:43:48;99480.49;;;22.14;28.93
51999;BME280;38015;50.924;11.598;2023-01-10T06:46:18;99483.78;;;22.15;28.93
51999;BME280;38015;50.924;11.598;2023-01-10T06:48:47;99490.84;;;22.14;28.95
51999;BME280;38015;50.924;11.598;2023-01-10T06:51:18;99498.61;;;22.03;29.14
51999;BME280;38015;50.924;11.598;2023-01-10T06:53:48;99503.19;;;22.16;28.92
51999;BME280;38015;50.924;11.598;2023-01-10T06:56:19;99506.23;;;22.20;28.83
51999;BME280;38015;50.924;11.598;2023-01-10T06:58:49;99516.22;;;22.12;29.00
51999;BME280;38015;50.924;11.598;2023-01-10T07:01:20;99518.99;;;22.15;28.94
51999;BME280;38015;50.924;11.598;2023-01-10T07:03:50;99526.31;;;22.17;28.88
51999;BME280;38015;50.924;11.598;2023-01-10T07:06:20;99532.38;;;22.11;29.00
51999;BME280;38015;50.924;11.598;2023-01-10T07:08:54;99535.95;;;22.10;29.03
51999;BME280;38015;50.924;11.598;2023-01-10T07:11:21;99532.68;;;22.10;29.00
51999;BME280;38015;50.924;11.598;2023-01-10T07:13:52;99537.56;;;22.07;29.09
51999;BME280;38015;50.924;11.598;2023-01-10T07:16:22;99543.62;;;21.93;29.36
51999;BME280;38015;50.924;11.598;2023-01-10T07:18:53;99549.00;;;22.20;28.91
51999;BME280;38015;50.924;11.598;2023-01-10T07:21:23;99552.47;;;22.27;28.80
51999;BME280;38015;50.924;11.598;2023-01-10T07:23:54;99558.27;;;22.32;28.74
51999;BME280;38015;50.924;11.598;2023-01-10T07:26:24;99565.82;;;22.37;28.69
51999;BME280;38015;50.924;11.598;2023-01-10T07:28:55;99572.39;;;22.38;28.69
51999;BME280;38015;50.924;11.598;2023-01-10T07:31:25;99582.25;;;22.34;28.77
51999;BME280;38015;50.924;11.598;2023-01-10T07:33:56;99589.86;;;22.36;28.76
51999;BME280;38015;50.924;11.598;2023-01-10T07:36:26;99604.77;;;22.44;28.73
51999;BME280;38015;50.924;11.598;2023-01-10T07:38:57;99608.87;;;22.45;28.58
51999;BME280;38015;50.924;11.598;2023-01-10T07:41:27;99614.93;;;22.28;28.70
51999;BME280;38015;50.924;11.598;2023-01-10T07:43:58;99625.71;;;22.10;28.81
51999;BME280;38015;50.924;11.598;2023-01-10T07:46:28;99632.41;;;22.16;28.71
51999;BME280;38015;50.924;11.598;2023-01-10T07:48:58;99631.16;;;22.43;28.28
51999;BME280;38015;50.924;11.598;2023-01-10T07:51:29;99633.10;;;22.52;28.24
51999;BME280;38015;50.924;11.598;2023-01-10T07:54:00;99635.84;;;22.53;28.27
51999;BME280;38015;50.924;11.598;2023-01-10T07:56:30;99640.58;;;22.57;28.14
51999;BME280;38015;50.924;11.598;2023-01-10T07:59:00;99647.79;;;22.54;28.34
51999;BME280;38015;50.924;11.598;2023-01-10T08:01:31;99643.97;;;22.67;28.42
51999;BME280;38015;50.924;11.598;2023-01-10T08:04:01;99649.47;;;22.74;28.54
51999;BME280;38015;50.924;11.598;2023-01-10T08:06:32;99651.01;;;22.80;28.40
51999;BME280;38015;50.924;11.598;2023-01-10T08:09:08;99655.53;;;22.79;28.46
51999;BME280;38015;50.924;11.598;2023-01-10T08:11:33;99657.86;;;22.81;28.65
51999;BME280;38015;50.924;11.598;2023-01-10T08:14:03;99662.29;;;22.77;28.73
51999;BME280;38015;50.924;11.598;2023-01-10T08:16:33;99671.73;;;22.83;28.67
51999;BME280;38015;50.924;11.598;2023-01-10T08:19:04;99672.22;;;22.91;28.64
51999;BME280;38015;50.924;11.598;2023-01-10T08:21:34;99676.26;;;22.87;28.78
51999;BME280;38015;50.924;11.598;2023-01-10T08:24:05;99680.66;;;22.76;29.03
51999;BME280;38015;50.924;11.598;2023-01-10T08:26:35;99682.44;;;22.82;28.97
51999;BME280;38015;50.924;11.598;2023-01-10T08:29:06;99685.97;;;22.86;28.96
51999;BME280;38015;50.924;11.598;2023-01-10T08:31:36;99688.11;;;22.88;28.98
51999;BME280;38015;50.924;11.598;2023-01-10T08:34:07;99692.71;;;22.90;29.01
51999;BME280;38015;50.924;11.598;2023-01-10T08:36:37;99696.62;;;22.95;29.02
51999;BME280;38015;50.924;11.598;2023-01-10T08:39:08;99699.34;;;22.91;29.09
51999;BME280;38015;50.924;11.598;2023-01-10T08:41:38;99699.66;;;22.73;29.44
51999;BME280;38015;50.924;11.598;2023-01-10T08:44:09;99702.32;;;22.81;29.33
51999;BME280;38015;50.924;11.598;2023-01-10T08:46:39;99707.87;;;22.86;29.30
51999;BME280;38015;50.924;11.598;2023-01-10T08:49:10;99706.35;;;22.87;29.32
51999;BME280;38015;50.924;11.598;2023-01-10T08:51:40;99707.55;;;22.96;29.19
51999;BME280;38015;50.924;11.598;2023-01-10T08:54:10;99711.43;;;22.91;29.47
51999;BME280;38015;50.924;11.598;2023-01-10T08:56:41;99716.25;;;22.94;29.38
51999;BME280;38015;50.924;11.598;2023-01-10T08:59:11;99723.74;;;22.90;29.50
51999;BME280;38015;50.924;11.598;2023-01-10T09:01:42;99728.69;;;22.91;29.49
51999;BME280;38015;50.924;11.598;2023-01-10T09:04:12;99729.55;;;22.95;29.48
51999;BME280;38015;50.924;11.598;2023-01-10T09:06:43;99730.80;;;23.01;29.41
51999;BME280;38015;50.924;11.598;2023-01-10T09:09:13;99729.25;;;23.05;29.39
51999;BME280;38015;50.924;11.598;2023-01-10T09:11:43;99730.32;;;23.01;29.51
51999;BME280;38015;50.924;11.598;2023-01-10T09:14:14;99729.32;;;22.97;29.61
51999;BME280;38015;50.924;11.598;2023-01-10T09:16:44;99726.17;;;22.76;30.00
51999;BME280;38015;50.924;11.598;2023-01-10T09:19:14;99725.71;;;22.94;29.63
51999;BME280;38015;50.924;11.598;2023-01-10T09:21:45;99724.43;;;23.01;29.56
51999;BME280;38015;50.924;11.598;2023-01-10T09:24:15;99725.81;;;23.01;29.95
51999;BME280;38015;50.924;11.598;2023-01-10T09:26:45;99730.47;;;22.95;30.36
51999;BME280;38015;50.924;11.598;2023-01-10T09:29:16;99739.42;;;22.99;30.55
51999;BME280;38015;50.924;11.598;2023-01-10T09:31:46;99743.62;;;23.01;30.78
51999;BME280;38015;50.924;11.598;2023-01-10T09:34:17;99754.26;;;23.07;30.82
51999;BME280;38015;50.924;11.598;2023-01-10T09:36:47;99757.34;;;23.11;30.88
51999;BME280;38015;50.924;11.598;2023-01-10T09:39:18;99765.00;;;23.15;30.99
51999;BME280;38015;50.924;11.598;2023-01-10T09:42:01;99769.70;;;23.15;31.04
51999;BME280;38015;50.924;11.598;2023-01-10T09:44:23;99773.53;;;23.09;31.22
51999;BME280;38015;50.924;11.598;2023-01-10T09:46:55;99780.19;;;23.18;31.10
51999;BME280;38015;50.924;11.598;2023-01-10T09:49:38;99780.21;;;23.20;31.12
51999;BME280;38015;50.924;11.598;2023-01-10T09:51:52;99786.08;;;23.20;31.22
51999;BME280;38015;50.924;11.598;2023-01-10T09:54:25;99783.42;;;23.13;31.33
51999;BME280;38015;50.924;11.598;2023-01-10T09:56:52;99777.04;;;23.07;31.42
51999;BME280;38015;50.924;11.598;2023-01-10T09:59:23;99774.86;;;23.12;31.40
51999;BME280;38015;50.924;11.598;2023-01-10T10:01:54;99787.46;;;23.14;31.33
51999;BME280;38015;50.924;11.598;2023-01-10T10:04:26;99795.38;;;23.14;31.56
51999;BME280;38015;50.924;11.598;2023-01-10T10:06:53;99789.66;;;23.19;31.39
51999;BME280;38015;50.924;11.598;2023-01-10T10:09:25;99780.53;;;23.19;31.71
51999;BME280;38015;50.924;11.598;2023-01-10T10:12:04;99766.35;;;23.16;32.20
51999;BME280;38015;50.924;11.598;2023-01-10T10:14:35;99748.72;;;23.10;32.26
51999;BME280;38015;50.924;11.598;2023-01-10T10:17:07;99742.53;;;23.10;32.05
51999;BME280;38015;50.924;11.598;2023-01-10T10:19:33;99750.50;;;23.07;32.18
51999;BME280;38015;50.924;11.598;2023-01-10T10:21:59;99767.39;;;23.08;32.67
51999;BME280;38015;50.924;11.598;2023-01-10T10:24:35;99771.51;;;23.21;32.50
51999;BME280;38015;50.924;11.598;2023-01-10T10:26:57;99765.45;;;23.21;32.55
51999;BME280;38015;50.924;11.598;2023-01-10T10:29:45;99753.46;;;23.25;32.64
51999;BME280;38015;50.924;11.598;2023-01-10T10:32:09;99752.50;;;23.19;32.91
51999;BME280;38015;50.924;11.598;2023-01-10T10:34:32;99755.23;;;23.33;32.51
51999;BME280;38015;50.924;11.598;2023-01-10T10:37:01;99753.47;;;23.35;32.49
51999;BME280;38015;50.924;11.598;2023-01-10T10:39:34;99751.15;;;23.31;32.64
51999;BME280;38015;50.924;11.598;2023-01-10T10:41:59;99755.47;;;23.28;32.68
51999;BME280;38015;50.924;11.598;2023-01-10T10:44:35;99755.03;;;23.29;32.59
51999;BME280;38015;50.924;11.598;2023-01-10T10:47:00;99759.85;;;23.27;32.75
51999;BME280;38015;50.924;11.598;2023-01-10T10:49:36;99764.45;;;23.33;32.66
51999;BME280;38015;50.924;11.598;2023-01-10T10:52:01;99758.29;;;23.35;32.74
51999;BME280;38015;50.924;11.598;2023-01-10T10:54:33;99758.29;;;23.33;32.82
51999;BME280;38015;50.924;11.598;2023-01-10T10:57:01;99766.20;;;23.31;32.75
51999;BME280;38015;50.924;11.598;2023-01-10T10:59:31;99774.33;;;23.28;32.90
51999;BME280;38015;50.924;11.598;2023-01-10T11:02:01;99778.29;;;23.29;32.89
51999;BME280;38015;50.924;11.598;2023-01-10T11:04:32;99776.84;;;23.29;32.88
51999;BME280;38015;50.924;11.598;2023-01-10T11:07:03;99780.79;;;23.31;32.83
51999;BME280;38015;50.924;11.598;2023-01-10T11:09:33;99782.42;;;23.34;32.78
51999;BME280;38015;50.924;11.598;2023-01-10T11:12:04;99787.70;;;23.33;32.76
51999;BME280;38015;50.924;11.598;2023-01-10T11:14:39;99790.26;;;23.34;33.03
51999;BME280;38015;50.924;11.598;2023-01-10T11:19:35;99781.50;;;23.43;32.88
51999;BME280;38015;50.924;11.598;2023-01-10T11:22:05;99785.58;;;23.43;32.84
51999;BME280;38015;50.924;11.598;2023-01-10T11:24:40;99792.02;;;23.42;32.77
51999;BME280;38015;50.924;11.598;2023-01-10T11:27:13;99796.80;;;23.41;32.63
51999;BME280;38015;50.924;11.598;2023-01-10T11:29:38;99795.93;;;23.35;32.99
51999;BME280;38015;50.924;11.598;2023-01-10T11:32:09;99792.89;;;23.46;32.68
51999;BME280;38015;50.924;11.598;2023-01-10T11:34:38;99791.19;;;23.36;32.77
51999;BME280;38015;50.924;11.598;2023-01-10T11:37:17;99795.48;;;23.38;32.82
51999;BME280;38015;50.924;11.598;2023-01-10T11:39:38;99800.20;;;23.44;32.64
51999;BME280;38015;50.924;11.598;2023-01-10T11:44:39;99799.49;;;23.48;32.63
51999;BME280;38015;50.924;11.598;2023-01-10T11:47:11;99797.09;;;23.39;32.74
51999;BME280;38015;50.924;11.598;2023-01-10T11:49:42;99797.73;;;23.46;32.65
51999;BME280;38015;50.924;11.598;2023-01-10T11:52:18;99802.48;;;23.42;32.77
51999;BME280;38015;50.924;11.598;2023-01-10T11:54:41;99806.00;;;23.46;32.64
51999;BME280;38015;50.924;11.598;2023-01-10T11:57:16;99803.42;;;23.45;32.61
51999;BME280;38015;50.924;11.598;2023-01-10T11:59:49;99798.08;;;23.45;32.53
51999;BME280;38015;50.924;11.598;2023-01-10T12:02:19;99798.83;;;23.56;32.38
51999;BME280;38015;50.924;11.598;2023-01-10T12:04:44;99801.41;;;23.44;32.65
51999;BME280;38015;50.924;11.598;2023-01-10T12:07:13;99797.86;;;23.37;32.54
51999;BME280;38015;50.924;11.598;2023-01-10T12:09:50;99798.91;;;23.50;32.61
51999;BME280;38015;50.924;11.598;2023-01-10T12:12:17;99797.93;;;23.41;33.09
51999;BME280;38015;50.924;11.598;2023-01-10T12:14:44;99801.08;;;23.38;33.34
51999;BME280;38015;50.924;11.598;2023-01-10T12:17:21;99809.69;;;23.42;33.49
51999;BME280;38015;50.924;11.598;2023-01-10T12:19:45;99815.00;;;23.42;33.54
51999;BME280;38015;50.924;11.598;2023-01-10T12:22:15;99816.65;;;23.37;33.58
51999;BME280;38015;50.924;11.598;2023-01-10T12:24:47;99820.16;;;23.39;33.50
51999;BME280;38015;50.924;11.598;2023-01-10T12:27:17;99822.26;;;23.40;33.52
51999;BME280;38015;50.924;11.598;2023-01-10T12:29:52;99818.15;;;23.33;33.83
51999;BME280;38015;50.924;11.598;2023-01-10T12:32:20;99812.39;;;23.45;33.54
51999;BME280;38015;50.924;11.598;2023-01-10T12:34:50;99815.48;;;23.46;33.70
51999;BME280;38015;50.924;11.598;2023-01-10T12:37:21;99817.77;;;23.58;33.56
51999;BME280;38015;50.924;11.598;2023-01-10T12:39:52;99819.63;;;23.58;33.62
51999;BME280;38015;50.924;11.598;2023-01-10T12:42:26;99820.93;;;23.57;33.70
51999;BME280;38015;50.924;11.598;2023-01-10T12:44:52;99816.18;;;23.65;33.56
51999;BME280;38015;50.924;11.598;2023-01-10T12:47:27;99812.47;;;23.59;33.76
51999;BME280;38015;50.924;11.598;2023-01-10T12:49:52;99814.58;;;23.61;33.77
51999;BME280;38015;50.924;11.598;2023-01-10T12:52:29;99817.34;;;23.54;33.94
51999;BME280;38015;50.924;11.598;2023-01-10T12:54:50;99813.85;;;23.72;33.78
51999;BME280;38015;50.924;11.598;2023-01-10T12:57:25;99810.70;;;23.61;33.96
51999;BME280;38015;50.924;11.598;2023-01-10T12:59:53;99812.02;;;23.62;33.97
51999;BME280;38015;50.924;11.598;2023-01-10T13:02:24;99815.45;;;23.58;34.29
51999;BME280;38015;50.924;11.598;2023-01-10T13:04:54;99817.00;;;23.67;34.15
51999;BME280;38015;50.924;11.598;2023-01-10T13:07:26;99821.39;;;23.64;34.23
51999;BME280;38015;50.924;11.598;2023-01-10T13:09:53;99826.92;;;23.68;34.26
51999;BME280;38015;50.924;11.598;2023-01-10T13:12:29;99824.80;;;23.55;34.26